sensor_id;sensor_type;location;lat;lon;timestamp;P1;durP1;ratioP1;P2;durP2;ratioP2
12418;SDS011;6273;52.312;9.178;2022-09-01T00:01:05;4.23;;;1.33;;
12418;SDS011;6273;52.312;9.178;2022-09-01T00:03:43;4.40;;;2.20;;
12418;SDS011;6273;52.312;9.178;2022-09-01T00:06:13;2.90;;;1.33;;
12418;SDS011;6273;52.312;9.178;2022-09-01T00:08:40;1.87;;;0.97;;
12418;SDS011;6273;52.312;9.178;2022-09-01T00:11:06;5.13;;;0.90;;
12418;SDS011;6273;52.312;9.178;2022-09-01T00:13:31;1.80;;;1.30;;
12418;SDS011;6273;52.312;9.178;2022-09-01T00:16:00;1.70;;;1.17;;
12418;SDS011;6273;52.312;9.178;2022-09-01T00:18:28;0.90;;;0.73;;
12418;SDS011;6273;52.312;9.178;2022-09-01T00:20:54;0.97;;;0.87;;
12418;SDS011;6273;52.312;9.178;2022-09-01T00:23:23;3.63;;;1.73;;
12418;SDS011;6273;52.312;9.178;2022-09-01T00:25:49;3.60;;;0.97;;
12418;SDS011;6273;52.312;9.178;2022-09-01T00:28:15;1.30;;;1.00;;
12418;SDS011;6273;52.312;9.178;2022-09-01T00:30:41;1.87;;;1.33;;
12418;SDS011;6273;52.312;9.178;2022-09-01T00:33:06;2.07;;;1.20;;
12418;SDS011;6273;52.312;9.178;2022-09-01T00:35:32;3.73;;;0.97;;
12418;SDS011;6273;52.312;9.178;2022-09-01T00:37:57;2.80;;;1.03;;
12418;SDS011;6273;52.312;9.178;2022-09-01T00:40:23;1.53;;;0.90;;
12418;SDS011;6273;52.312;9.178;2022-09-01T00:42:48;2.53;;;1.10;;
12418;SDS011;6273;52.312;9.178;2022-09-01T00:45:14;2.07;;;1.10;;
12418;SDS011;6273;52.312;9.178;2022-09-01T00:47:40;3.00;;;0.90;;
12418;SDS011;6273;52.312;9.178;2022-09-01T00:50:07;1.20;;;0.90;;
12418;SDS011;6273;52.312;9.178;2022-09-01T00:53:06;1.57;;;1.47;;
12418;SDS011;6273;52.312;9.178;2022-09-01T00:55:29;1.40;;;1.20;;
12418;SDS011;6273;52.312;9.178;2022-09-01T00:57:57;2.10;;;0.80;;
12418;SDS011;6273;52.312;9.178;2022-09-01T01:00:26;1.00;;;0.90;;
12418;SDS011;6273;52.312;9.178;2022-09-01T01:02:54;2.17;;;1.30;;
12418;SDS011;6273;52.312;9.178;2022-09-01T01:05:30;1.40;;;1.27;;
12418;SDS011;6273;52.312;9.178;2022-09-01T01:07:58;1.47;;;1.37;;
12418;SDS011;6273;52.312;9.178;2022-09-01T01:10:26;1.17;;;1.00;;
12418;SDS011;6273;52.312;9.178;2022-09-01T01:12:56;1.23;;;1.13;;
12418;SDS011;6273;52.312;9.178;2022-09-01T01:15:26;1.57;;;1.20;;
12418;SDS011;6273;52.312;9.178;2022-09-01T01:17:52;5.37;;;1.40;;
12418;SDS011;6273;52.312;9.178;2022-09-01T01:20:18;1.73;;;1.30;;
12418;SDS011;6273;52.312;9.178;2022-09-01T01:23:30;1.80;;;1.10;;
12418;SDS011;6273;52.312;9.178;2022-09-01T01:26:05;2.87;;;1.10;;
12418;SDS011;6273;52.312;9.178;2022-09-01T01:28:42;5.53;;;1.20;;
12418;SDS011;6273;52.312;9.178;2022-09-01T01:31:13;2.30;;;1.17;;
12418;SDS011;6273;52.312;9.178;2022-09-01T01:33:44;4.73;;;1.43;;
12418;SDS011;6273;52.312;9.178;2022-09-01T01:36:19;1.57;;;1.40;;
12418;SDS011;6273;52.312;9.178;2022-09-01T01:38:56;2.23;;;1.17;;
12418;SDS011;6273;52.312;9.178;2022-09-01T01:41:26;2.03;;;0.90;;
12418;SDS011;6273;52.312;9.178;2022-09-01T01:43:53;3.40;;;1.17;;
12418;SDS011;6273;52.312;9.178;2022-09-01T01:46:23;1.30;;;1.20;;
12418;SDS011;6273;52.312;9.178;2022-09-01T01:48:50;1.43;;;1.10;;
12418;SDS011;6273;52.312;9.178;2022-09-01T01:51:17;2.73;;;1.23;;
12418;SDS011;6273;52.312;9.178;2022-09-01T01:53:45;1.20;;;1.10;;
12418;SDS011;6273;52.312;9.178;2022-09-01T01:56:11;2.20;;;1.30;;
12418;SDS011;6273;52.312;9.178;2022-09-01T01:58:37;3.47;;;1.60;;
12418;SDS011;6273;52.312;9.178;2022-09-01T02:01:04;2.83;;;1.13;;
12418;SDS011;6273;52.312;9.178;2022-09-01T02:03:32;1.13;;;1.03;;
12418;SDS011;6273;52.312;9.178;2022-09-01T02:06:02;4.00;;;1.27;;
12418;SDS011;6273;52.312;9.178;2022-09-01T02:08:33;4.70;;;1.40;;
12418;SDS011;6273;52.312;9.178;2022-09-01T02:11:01;1.30;;;1.20;;
12418;SDS011;6273;52.312;9.178;2022-09-01T02:13:28;1.60;;;0.90;;
12418;SDS011;6273;52.312;9.178;2022-09-01T02:15:59;4.40;;;1.40;;
12418;SDS011;6273;52.312;9.178;2022-09-01T02:18:35;2.83;;;1.40;;
12418;SDS011;6273;52.312;9.178;2022-09-01T02:21:02;2.93;;;1.90;;
12418;SDS011;6273;52.312;9.178;2022-09-01T02:23:35;2.27;;;2.07;;
12418;SDS011;6273;52.312;9.178;2022-09-01T02:26:03;2.40;;;1.50;;
12418;SDS011;6273;52.312;9.178;2022-09-01T02:28:31;1.57;;;1.30;;
12418;SDS011;6273;52.312;9.178;2022-09-01T02:31:00;2.70;;;1.37;;
12418;SDS011;6273;52.312;9.178;2022-09-01T02:33:27;5.10;;;1.43;;
12418;SDS011;6273;52.312;9.178;2022-09-01T02:35:56;3.10;;;1.23;;
12418;SDS011;6273;52.312;9.178;2022-09-01T02:38:24;3.00;;;1.70;;
12418;SDS011;6273;52.312;9.178;2022-09-01T02:40:53;4.23;;;1.47;;
12418;SDS011;6273;52.312;9.178;2022-09-01T02:43:20;2.13;;;1.13;;
12418;SDS011;6273;52.312;9.178;2022-09-01T02:45:50;1.27;;;1.17;;
12418;SDS011;6273;52.312;9.178;2022-09-01T02:48:24;1.40;;;1.30;;
12418;SDS011;6273;52.312;9.178;2022-09-01T02:50:57;1.97;;;1.60;;
12418;SDS011;6273;52.312;9.178;2022-09-01T02:53:26;2.83;;;1.93;;
12418;SDS011;6273;52.312;9.178;2022-09-01T02:55:52;1.40;;;1.30;;
12418;SDS011;6273;52.312;9.178;2022-09-01T02:58:24;1.50;;;1.40;;
12418;SDS011;6273;52.312;9.178;2022-09-01T03:00:51;3.87;;;1.40;;
12418;SDS011;6273;52.312;9.178;2022-09-01T03:03:18;1.67;;;1.13;;
12418;SDS011;6273;52.312;9.178;2022-09-01T03:05:46;3.27;;;1.00;;
12418;SDS011;6273;52.312;9.178;2022-09-01T03:08:18;3.90;;;1.60;;
12418;SDS011;6273;52.312;9.178;2022-09-01T03:10:44;2.23;;;2.03;;
12418;SDS011;6273;52.312;9.178;2022-09-01T03:13:16;2.60;;;1.60;;
12418;SDS011;6273;52.312;9.178;2022-09-01T03:15:44;2.40;;;1.60;;
12418;SDS011;6273;52.312;9.178;2022-09-01T03:18:10;1.83;;;1.40;;
12418;SDS011;6273;52.312;9.178;2022-09-01T03:20:38;1.33;;;1.23;;
12418;SDS011;6273;52.312;9.178;2022-09-01T03:23:07;2.00;;;1.60;;
12418;SDS011;6273;52.312;9.178;2022-09-01T03:25:36;2.47;;;2.10;;
12418;SDS011;6273;52.312;9.178;2022-09-01T03:28:03;2.20;;;1.47;;
12418;SDS011;6273;52.312;9.178;2022-09-01T03:30:30;1.43;;;1.33;;
12418;SDS011;6273;52.312;9.178;2022-09-01T03:32:58;6.03;;;2.03;;
12418;SDS011;6273;52.312;9.178;2022-09-01T03:35:26;2.03;;;1.87;;
12418;SDS011;6273;52.312;9.178;2022-09-01T03:37:53;2.67;;;1.90;;
12418;SDS011;6273;52.312;9.178;2022-09-01T03:40:23;3.60;;;1.90;;
12418;SDS011;6273;52.312;9.178;2022-09-01T03:43:00;5.63;;;2.13;;
12418;SDS011;6273;52.312;9.178;2022-09-01T03:45:30;2.50;;;2.10;;
12418;SDS011;6273;52.312;9.178;2022-09-01T03:47:59;2.30;;;1.87;;
12418;SDS011;6273;52.312;9.178;2022-09-01T03:50:30;3.00;;;2.00;;
12418;SDS011;6273;52.312;9.178;2022-09-01T03:52:56;2.07;;;1.87;;
12418;SDS011;6273;52.312;9.178;2022-09-01T03:55:26;1.87;;;1.77;;
12418;SDS011;6273;52.312;9.178;2022-09-01T03:57:59;4.50;;;2.00;;
12418;SDS011;6273;52.312;9.178;2022-09-01T04:00:31;3.77;;;1.93;;
12418;SDS011;6273;52.312;9.178;2022-09-01T04:03:04;4.27;;;1.87;;
12418;SDS011;6273;52.312;9.178;2022-09-01T04:05:32;2.10;;;2.00;;
12418;SDS011;6273;52.312;9.178;2022-09-01T04:08:00;1.90;;;1.73;;
12418;SDS011;6273;52.312;9.178;2022-09-01T04:10:28;2.77;;;2.17;;
12418;SDS011;6273;52.312;9.178;2022-09-01T04:12:56;2.80;;;1.73;;
12418;SDS011;6273;52.312;9.178;2022-09-01T04:15:23;2.87;;;1.87;;
12418;SDS011;6273;52.312;9.178;2022-09-01T04:17:51;2.70;;;1.90;;
12418;SDS011;6273;52.312;9.178;2022-09-01T04:20:33;1.57;;;1.47;;
12418;SDS011;6273;52.312;9.178;2022-09-01T04:23:11;1.90;;;1.70;;
12418;SDS011;6273;52.312;9.178;2022-09-01T04:26:02;4.93;;;2.00;;
12418;SDS011;6273;52.312;9.178;2022-09-01T04:28:41;4.67;;;2.30;;
12418;SDS011;6273;52.312;9.178;2022-09-01T04:31:16;12.20;;;2.83;;
12418;SDS011;6273;52.312;9.178;2022-09-01T04:33:44;1.80;;;1.70;;
12418;SDS011;6273;52.312;9.178;2022-09-01T04:36:22;1.80;;;1.70;;
12418;SDS011;6273;52.312;9.178;2022-09-01T04:38:52;2.33;;;2.10;;
12418;SDS011;6273;52.312;9.178;2022-09-01T04:41:21;2.63;;;2.40;;
12418;SDS011;6273;52.312;9.178;2022-09-01T04:43:56;10.13;;;4.23;;
12418;SDS011;6273;52.312;9.178;2022-09-01T04:46:24;2.90;;;2.37;;
12418;SDS011;6273;52.312;9.178;2022-09-01T04:48:53;3.73;;;2.40;;
12418;SDS011;6273;52.312;9.178;2022-09-01T04:51:19;2.40;;;2.20;;
12418;SDS011;6273;52.312;9.178;2022-09-01T04:53:46;6.47;;;2.47;;
12418;SDS011;6273;52.312;9.178;2022-09-01T04:56:16;2.93;;;2.00;;
12418;SDS011;6273;52.312;9.178;2022-09-01T04:58:46;4.20;;;2.50;;
12418;SDS011;6273;52.312;9.178;2022-09-01T05:01:17;2.60;;;2.40;;
12418;SDS011;6273;52.312;9.178;2022-09-01T05:03:44;2.50;;;2.30;;
12418;SDS011;6273;52.312;9.178;2022-09-01T05:06:15;3.10;;;2.27;;
12418;SDS011;6273;52.312;9.178;2022-09-01T05:08:42;6.97;;;1.80;;
12418;SDS011;6273;52.312;9.178;2022-09-01T05:11:10;2.70;;;1.60;;
12418;SDS011;6273;52.312;9.178;2022-09-01T05:13:36;2.90;;;2.10;;
12418;SDS011;6273;52.312;9.178;2022-09-01T05:16:06;2.93;;;2.70;;
12418;SDS011;6273;52.312;9.178;2022-09-01T05:18:37;2.30;;;2.20;;
12418;SDS011;6273;52.312;9.178;2022-09-01T05:21:05;2.07;;;1.97;;
12418;SDS011;6273;52.312;9.178;2022-09-01T05:23:37;2.17;;;1.97;;
12418;SDS011;6273;52.312;9.178;2022-09-01T05:26:05;4.40;;;2.40;;
12418;SDS011;6273;52.312;9.178;2022-09-01T05:28:40;2.30;;;2.00;;
12418;SDS011;6273;52.312;9.178;2022-09-01T05:31:07;3.83;;;1.90;;
12418;SDS011;6273;52.312;9.178;2022-09-01T05:33:34;2.73;;;2.33;;
12418;SDS011;6273;52.312;9.178;2022-09-01T05:36:02;1.80;;;1.70;;
12418;SDS011;6273;52.312;9.178;2022-09-01T05:38:32;4.20;;;1.70;;
12418;SDS011;6273;52.312;9.178;2022-09-01T05:41:01;9.43;;;1.60;;
12418;SDS011;6273;52.312;9.178;2022-09-01T05:43:32;1.60;;;1.40;;
12418;SDS011;6273;52.312;9.178;2022-09-01T05:45:59;3.43;;;1.87;;
12418;SDS011;6273;52.312;9.178;2022-09-01T05:48:25;1.40;;;1.27;;
12418;SDS011;6273;52.312;9.178;2022-09-01T05:50:55;4.03;;;1.37;;
12418;SDS011;6273;52.312;9.178;2022-09-01T05:53:23;2.80;;;1.40;;
12418;SDS011;6273;52.312;9.178;2022-09-01T05:55:51;4.97;;;1.43;;
12418;SDS011;6273;52.312;9.178;2022-09-01T05:58:24;4.60;;;1.20;;
12418;SDS011;6273;52.312;9.178;2022-09-01T06:00:52;3.00;;;1.30;;
12418;SDS011;6273;52.312;9.178;2022-09-01T06:03:20;2.73;;;1.63;;
12418;SDS011;6273;52.312;9.178;2022-09-01T06:05:47;2.30;;;2.03;;
12418;SDS011;6273;52.312;9.178;2022-09-01T06:08:16;2.23;;;1.30;;
12418;SDS011;6273;52.312;9.178;2022-09-01T06:10:44;1.87;;;1.77;;
12418;SDS011;6273;52.312;9.178;2022-09-01T06:13:10;5.33;;;1.83;;
12418;SDS011;6273;52.312;9.178;2022-09-01T06:15:40;4.33;;;1.20;;
12418;SDS011;6273;52.312;9.178;2022-09-01T06:18:09;5.67;;;1.50;;
12418;SDS011;6273;52.312;9.178;2022-09-01T06:20:40;1.10;;;1.00;;
12418;SDS011;6273;52.312;9.178;2022-09-01T06:23:08;2.53;;;1.20;;
12418;SDS011;6273;52.312;9.178;2022-09-01T06:25:36;2.83;;;1.37;;
12418;SDS011;6273;52.312;9.178;2022-09-01T06:28:04;1.20;;;1.10;;
12418;SDS011;6273;52.312;9.178;2022-09-01T06:30:32;2.70;;;1.23;;
12418;SDS011;6273;52.312;9.178;2022-09-01T06:33:00;1.97;;;1.40;;
12418;SDS011;6273;52.312;9.178;2022-09-01T06:35:26;1.10;;;0.87;;
12418;SDS011;6273;52.312;9.178;2022-09-01T06:37:54;1.87;;;1.50;;
12418;SDS011;6273;52.312;9.178;2022-09-01T06:40:23;1.97;;;1.20;;
12418;SDS011;6273;52.312;9.178;2022-09-01T06:42:50;3.00;;;1.00;;
12418;SDS011;6273;52.312;9.178;2022-09-01T06:45:20;5.17;;;1.03;;
12418;SDS011;6273;52.312;9.178;2022-09-01T06:47:47;1.80;;;1.30;;
12418;SDS011;6273;52.312;9.178;2022-09-01T06:50:16;3.57;;;1.20;;
12418;SDS011;6273;52.312;9.178;2022-09-01T06:52:44;2.50;;;1.10;;
12418;SDS011;6273;52.312;9.178;2022-09-01T06:55:11;1.40;;;0.97;;
12418;SDS011;6273;52.312;9.178;2022-09-01T06:57:39;1.70;;;1.30;;
12418;SDS011;6273;52.312;9.178;2022-09-01T07:00:06;3.20;;;2.20;;
12418;SDS011;6273;52.312;9.178;2022-09-01T07:02:45;1.50;;;1.20;;
12418;SDS011;6273;52.312;9.178;2022-09-01T07:05:12;1.57;;;1.20;;
12418;SDS011;6273;52.312;9.178;2022-09-01T07:07:46;1.67;;;1.17;;
12418;SDS011;6273;52.312;9.178;2022-09-01T07:10:15;0.87;;;0.80;;
12418;SDS011;6273;52.312;9.178;2022-09-01T07:12:44;3.20;;;1.30;;
12418;SDS011;6273;52.312;9.178;2022-09-01T07:15:12;1.57;;;1.47;;
12418;SDS011;6273;52.312;9.178;2022-09-01T07:17:45;2.73;;;1.50;;
12418;SDS011;6273;52.312;9.178;2022-09-01T07:20:16;0.90;;;0.70;;
12418;SDS011;6273;52.312;9.178;2022-09-01T07:22:45;1.90;;;0.83;;
12418;SDS011;6273;52.312;9.178;2022-09-01T07:25:11;3.63;;;1.20;;
12418;SDS011;6273;52.312;9.178;2022-09-01T07:27:41;3.00;;;1.17;;
12418;SDS011;6273;52.312;9.178;2022-09-01T07:30:13;1.40;;;0.80;;
12418;SDS011;6273;52.312;9.178;2022-09-01T07:32:40;0.93;;;0.77;;
12418;SDS011;6273;52.312;9.178;2022-09-01T07:35:09;3.40;;;1.13;;
12418;SDS011;6273;52.312;9.178;2022-09-01T07:37:36;2.60;;;1.27;;
12418;SDS011;6273;52.312;9.178;2022-09-01T07:40:05;1.77;;;1.20;;
12418;SDS011;6273;52.312;9.178;2022-09-01T07:42:33;2.13;;;1.30;;
12418;SDS011;6273;52.312;9.178;2022-09-01T07:45:00;2.87;;;1.20;;
12418;SDS011;6273;52.312;9.178;2022-09-01T07:47:31;2.17;;;1.30;;
12418;SDS011;6273;52.312;9.178;2022-09-01T07:50:00;2.07;;;1.37;;
12418;SDS011;6273;52.312;9.178;2022-09-01T07:52:35;2.33;;;1.30;;
12418;SDS011;6273;52.312;9.178;2022-09-01T07:55:11;1.20;;;1.10;;
12418;SDS011;6273;52.312;9.178;2022-09-01T07:57:39;6.20;;;1.03;;
12418;SDS011;6273;52.312;9.178;2022-09-01T08:00:07;2.10;;;1.17;;
12418;SDS011;6273;52.312;9.178;2022-09-01T08:02:35;6.40;;;1.40;;
12418;SDS011;6273;52.312;9.178;2022-09-01T08:05:07;1.47;;;1.13;;
12418;SDS011;6273;52.312;9.178;2022-09-01T08:07:37;1.40;;;1.13;;
12418;SDS011;6273;52.312;9.178;2022-09-01T08:10:04;2.90;;;1.43;;
12418;SDS011;6273;52.312;9.178;2022-09-01T08:12:32;1.60;;;1.00;;
12418;SDS011;6273;52.312;9.178;2022-09-01T08:15:00;1.83;;;1.10;;
12418;SDS011;6273;52.312;9.178;2022-09-01T08:17:26;6.03;;;1.23;;
12418;SDS011;6273;52.312;9.178;2022-09-01T08:19:52;3.60;;;1.50;;
12418;SDS011;6273;52.312;9.178;2022-09-01T08:22:18;1.00;;;0.90;;
12418;SDS011;6273;52.312;9.178;2022-09-01T08:24:48;2.07;;;1.00;;
12418;SDS011;6273;52.312;9.178;2022-09-01T08:27:13;1.30;;;0.90;;
12418;SDS011;6273;52.312;9.178;2022-09-01T08:29:40;3.53;;;1.60;;
12418;SDS011;6273;52.312;9.178;2022-09-01T08:32:06;2.13;;;1.43;;
12418;SDS011;6273;52.312;9.178;2022-09-01T08:34:32;4.07;;;1.57;;
12418;SDS011;6273;52.312;9.178;2022-09-01T08:36:58;2.10;;;0.90;;
12418;SDS011;6273;52.312;9.178;2022-09-01T08:39:24;2.37;;;0.93;;
12418;SDS011;6273;52.312;9.178;2022-09-01T08:47:03;2.00;;;1.17;;
12418;SDS011;6273;52.312;9.178;2022-09-01T08:49:32;1.07;;;0.97;;
12418;SDS011;6273;52.312;9.178;2022-09-01T08:57:17;5.30;;;0.80;;
12418;SDS011;6273;52.312;9.178;2022-09-01T08:59:45;5.50;;;1.17;;
12418;SDS011;6273;52.312;9.178;2022-09-01T09:02:47;3.53;;;1.63;;
12418;SDS011;6273;52.312;9.178;2022-09-01T09:10:23;1.90;;;1.00;;
12418;SDS011;6273;52.312;9.178;2022-09-01T09:13:02;1.83;;;1.10;;
12418;SDS011;6273;52.312;9.178;2022-09-01T09:15:44;3.53;;;0.97;;
12418;SDS011;6273;52.312;9.178;2022-09-01T09:18:37;1.97;;;0.90;;
12418;SDS011;6273;52.312;9.178;2022-09-01T09:21:11;1.83;;;1.10;;
12418;SDS011;6273;52.312;9.178;2022-09-01T09:23:43;4.27;;;1.50;;
12418;SDS011;6273;52.312;9.178;2022-09-01T09:26:11;1.83;;;1.37;;
12418;SDS011;6273;52.312;9.178;2022-09-01T09:28:37;1.67;;;1.10;;
12418;SDS011;6273;52.312;9.178;2022-09-01T09:33:51;1.77;;;1.10;;
12418;SDS011;6273;52.312;9.178;2022-09-01T09:36:18;1.50;;;0.80;;
12418;SDS011;6273;52.312;9.178;2022-09-01T09:41:35;1.83;;;1.17;;
12418;SDS011;6273;52.312;9.178;2022-09-01T09:46:43;2.30;;;0.80;;
12418;SDS011;6273;52.312;9.178;2022-09-01T09:54:35;1.97;;;1.07;;
12418;SDS011;6273;52.312;9.178;2022-09-01T09:59:45;1.53;;;0.80;;
12418;SDS011;6273;52.312;9.178;2022-09-01T10:02:16;1.20;;;0.60;;
12418;SDS011;6273;52.312;9.178;2022-09-01T10:04:57;2.30;;;0.70;;
12418;SDS011;6273;52.312;9.178;2022-09-01T10:10:24;3.33;;;0.90;;
12418;SDS011;6273;52.312;9.178;2022-09-01T10:12:53;2.50;;;0.80;;
12418;SDS011;6273;52.312;9.178;2022-09-01T10:15:29;3.73;;;0.90;;
12418;SDS011;6273;52.312;9.178;2022-09-01T10:17:59;1.30;;;0.80;;
12418;SDS011;6273;52.312;9.178;2022-09-01T10:20:31;3.97;;;1.03;;
12418;SDS011;6273;52.312;9.178;2022-09-01T10:23:01;4.50;;;1.00;;
12418;SDS011;6273;52.312;9.178;2022-09-01T10:25:28;1.77;;;0.80;;
12418;SDS011;6273;52.312;9.178;2022-09-01T10:28:10;1.20;;;0.83;;
12418;SDS011;6273;52.312;9.178;2022-09-01T10:30:41;2.10;;;1.27;;
12418;SDS011;6273;52.312;9.178;2022-09-01T10:33:09;2.60;;;0.90;;
12418;SDS011;6273;52.312;9.178;2022-09-01T10:35:47;8.70;;;1.27;;
12418;SDS011;6273;52.312;9.178;2022-09-01T10:38:20;3.53;;;0.70;;
12418;SDS011;6273;52.312;9.178;2022-09-01T10:40:48;1.10;;;1.00;;
12418;SDS011;6273;52.312;9.178;2022-09-01T10:43:44;3.73;;;0.70;;
12418;SDS011;6273;52.312;9.178;2022-09-01T10:48:46;0.90;;;0.63;;
12418;SDS011;6273;52.312;9.178;2022-09-01T10:53:46;0.83;;;0.73;;
12418;SDS011;6273;52.312;9.178;2022-09-01T10:56:19;0.70;;;0.60;;
12418;SDS011;6273;52.312;9.178;2022-09-01T11:04:04;1.97;;;0.83;;
12418;SDS011;6273;52.312;9.178;2022-09-01T11:09:16;0.80;;;0.70;;
12418;SDS011;6273;52.312;9.178;2022-09-01T11:12:34;4.10;;;0.80;;
12418;SDS011;6273;52.312;9.178;2022-09-01T11:14:45;3.40;;;0.77;;
12418;SDS011;6273;52.312;9.178;2022-09-01T11:19:56;2.23;;;0.90;;
12418;SDS011;6273;52.312;9.178;2022-09-01T11:22:36;3.30;;;0.77;;
12418;SDS011;6273;52.312;9.178;2022-09-01T11:30:19;2.00;;;0.60;;
12418;SDS011;6273;52.312;9.178;2022-09-01T11:33:33;3.20;;;0.70;;
12418;SDS011;6273;52.312;9.178;2022-09-01T11:47:14;4.53;;;1.07;;
12418;SDS011;6273;52.312;9.178;2022-09-01T11:49:48;5.67;;;1.20;;
12418;SDS011;6273;52.312;9.178;2022-09-01T11:52:17;4.40;;;1.43;;
12418;SDS011;6273;52.312;9.178;2022-09-01T11:54:45;9.57;;;1.57;;
12418;SDS011;6273;52.312;9.178;2022-09-01T11:57:15;0.70;;;0.60;;
12418;SDS011;6273;52.312;9.178;2022-09-01T11:59:42;0.90;;;0.80;;
12418;SDS011;6273;52.312;9.178;2022-09-01T12:02:07;8.10;;;1.23;;
12418;SDS011;6273;52.312;9.178;2022-09-01T12:04:40;3.57;;;0.60;;
12418;SDS011;6273;52.312;9.178;2022-09-01T12:07:07;2.70;;;0.70;;
12418;SDS011;6273;52.312;9.178;2022-09-01T12:09:38;0.80;;;0.50;;
12418;SDS011;6273;52.312;9.178;2022-09-01T12:14:59;0.90;;;0.60;;
12418;SDS011;6273;52.312;9.178;2022-09-01T12:17:26;4.20;;;0.90;;
12418;SDS011;6273;52.312;9.178;2022-09-01T12:19:52;8.07;;;0.87;;
12418;SDS011;6273;52.312;9.178;2022-09-01T12:22:19;1.10;;;0.80;;
12418;SDS011;6273;52.312;9.178;2022-09-01T12:24:52;20.83;;;1.83;;
12418;SDS011;6273;52.312;9.178;2022-09-01T12:27:19;2.07;;;0.70;;
12418;SDS011;6273;52.312;9.178;2022-09-01T12:29:47;10.73;;;1.60;;
12418;SDS011;6273;52.312;9.178;2022-09-01T12:32:14;5.70;;;0.77;;
12418;SDS011;6273;52.312;9.178;2022-09-01T12:34:42;3.43;;;0.70;;
12418;SDS011;6273;52.312;9.178;2022-09-01T12:37:23;3.57;;;0.90;;
12418;SDS011;6273;52.312;9.178;2022-09-01T12:39:51;0.73;;;0.57;;
12418;SDS011;6273;52.312;9.178;2022-09-01T12:45:12;0.63;;;0.60;;
12418;SDS011;6273;52.312;9.178;2022-09-01T12:52:47;0.80;;;0.50;;
12418;SDS011;6273;52.312;9.178;2022-09-01T12:55:19;4.00;;;0.60;;
12418;SDS011;6273;52.312;9.178;2022-09-01T12:57:51;0.87;;;0.60;;
12418;SDS011;6273;52.312;9.178;2022-09-01T13:00:23;1.70;;;0.90;;
12418;SDS011;6273;52.312;9.178;2022-09-01T13:03:15;0.70;;;0.57;;
12418;SDS011;6273;52.312;9.178;2022-09-01T13:05:46;0.83;;;0.50;;
12418;SDS011;6273;52.312;9.178;2022-09-01T13:08:17;3.43;;;0.70;;
12418;SDS011;6273;52.312;9.178;2022-09-01T13:10:49;1.60;;;0.80;;
12418;SDS011;6273;52.312;9.178;2022-09-01T13:13:19;1.37;;;0.70;;
12418;SDS011;6273;52.312;9.178;2022-09-01T13:15:49;1.83;;;0.70;;
12418;SDS011;6273;52.312;9.178;2022-09-01T13:18:17;2.50;;;0.60;;
12418;SDS011;6273;52.312;9.178;2022-09-01T13:20:45;1.43;;;0.63;;
12418;SDS011;6273;52.312;9.178;2022-09-01T13:23:11;3.17;;;0.50;;
12418;SDS011;6273;52.312;9.178;2022-09-01T13:25:38;1.60;;;0.90;;
12418;SDS011;6273;52.312;9.178;2022-09-01T13:28:05;0.80;;;0.67;;
12418;SDS011;6273;52.312;9.178;2022-09-01T13:30:31;1.53;;;0.73;;
12418;SDS011;6273;52.312;9.178;2022-09-01T13:32:58;1.00;;;0.50;;
12418;SDS011;6273;52.312;9.178;2022-09-01T13:35:24;3.00;;;1.00;;
12418;SDS011;6273;52.312;9.178;2022-09-01T13:37:50;3.90;;;0.83;;
12418;SDS011;6273;52.312;9.178;2022-09-01T13:40:16;0.97;;;0.83;;
12418;SDS011;6273;52.312;9.178;2022-09-01T13:42:51;2.20;;;0.90;;
12418;SDS011;6273;52.312;9.178;2022-09-01T13:45:18;1.23;;;1.00;;
12418;SDS011;6273;52.312;9.178;2022-09-01T13:47:46;0.70;;;0.60;;
12418;SDS011;6273;52.312;9.178;2022-09-01T13:50:14;2.47;;;0.57;;
12418;SDS011;6273;52.312;9.178;2022-09-01T13:52:43;1.10;;;1.00;;
12418;SDS011;6273;52.312;9.178;2022-09-01T13:55:17;0.70;;;0.50;;
12418;SDS011;6273;52.312;9.178;2022-09-01T13:57:45;1.33;;;0.60;;
12418;SDS011;6273;52.312;9.178;2022-09-01T14:00:12;0.80;;;0.53;;
12418;SDS011;6273;52.312;9.178;2022-09-01T14:02:42;0.83;;;0.60;;
12418;SDS011;6273;52.312;9.178;2022-09-01T14:05:18;0.80;;;0.60;;
12418;SDS011;6273;52.312;9.178;2022-09-01T14:07:45;2.67;;;0.60;;
12418;SDS011;6273;52.312;9.178;2022-09-01T14:10:12;0.70;;;0.60;;
12418;SDS011;6273;52.312;9.178;2022-09-01T14:12:39;2.70;;;0.60;;
12418;SDS011;6273;52.312;9.178;2022-09-01T14:15:06;1.77;;;0.90;;
12418;SDS011;6273;52.312;9.178;2022-09-01T14:17:33;4.50;;;0.77;;
12418;SDS011;6273;52.312;9.178;2022-09-01T14:20:00;4.50;;;0.60;;
12418;SDS011;6273;52.312;9.178;2022-09-01T14:22:26;1.93;;;0.70;;
12418;SDS011;6273;52.312;9.178;2022-09-01T14:24:52;0.70;;;0.60;;
12418;SDS011;6273;52.312;9.178;2022-09-01T14:27:17;6.10;;;0.80;;
12418;SDS011;6273;52.312;9.178;2022-09-01T14:29:47;1.00;;;0.70;;
12418;SDS011;6273;52.312;9.178;2022-09-01T14:32:14;1.63;;;0.60;;
12418;SDS011;6273;52.312;9.178;2022-09-01T14:34:41;2.00;;;0.60;;
12418;SDS011;6273;52.312;9.178;2022-09-01T14:37:07;1.10;;;0.60;;
12418;SDS011;6273;52.312;9.178;2022-09-01T14:39:33;1.83;;;0.80;;
12418;SDS011;6273;52.312;9.178;2022-09-01T14:41:59;2.30;;;0.60;;
12418;SDS011;6273;52.312;9.178;2022-09-01T14:44:24;0.70;;;0.60;;
12418;SDS011;6273;52.312;9.178;2022-09-01T14:46:50;1.10;;;0.67;;
12418;SDS011;6273;52.312;9.178;2022-09-01T14:49:18;2.30;;;0.70;;
12418;SDS011;6273;52.312;9.178;2022-09-01T14:51:44;2.13;;;0.77;;
12418;SDS011;6273;52.312;9.178;2022-09-01T14:54:10;0.80;;;0.63;;
12418;SDS011;6273;52.312;9.178;2022-09-01T14:56:36;0.80;;;0.60;;
12418;SDS011;6273;52.312;9.178;2022-09-01T14:59:01;0.83;;;0.70;;
12418;SDS011;6273;52.312;9.178;2022-09-01T15:01:27;1.70;;;0.80;;
12418;SDS011;6273;52.312;9.178;2022-09-01T15:03:53;1.47;;;0.70;;
12418;SDS011;6273;52.312;9.178;2022-09-01T15:06:20;2.10;;;0.60;;
12418;SDS011;6273;52.312;9.178;2022-09-01T15:08:47;2.30;;;0.60;;
12418;SDS011;6273;52.312;9.178;2022-09-01T15:11:14;1.60;;;0.67;;
12418;SDS011;6273;52.312;9.178;2022-09-01T15:13:42;2.27;;;0.70;;
12418;SDS011;6273;52.312;9.178;2022-09-01T15:16:15;2.67;;;0.63;;
12418;SDS011;6273;52.312;9.178;2022-09-01T15:18:43;1.27;;;0.70;;
12418;SDS011;6273;52.312;9.178;2022-09-01T15:21:17;1.33;;;0.70;;
12418;SDS011;6273;52.312;9.178;2022-09-01T15:23:44;3.10;;;0.60;;
12418;SDS011;6273;52.312;9.178;2022-09-01T15:26:10;1.00;;;0.70;;
12418;SDS011;6273;52.312;9.178;2022-09-01T15:28:35;1.97;;;0.70;;
12418;SDS011;6273;52.312;9.178;2022-09-01T15:31:01;0.70;;;0.50;;
12418;SDS011;6273;52.312;9.178;2022-09-01T15:33:26;1.70;;;0.70;;
12418;SDS011;6273;52.312;9.178;2022-09-01T15:35:52;4.00;;;0.77;;
12418;SDS011;6273;52.312;9.178;2022-09-01T15:38:18;0.70;;;0.50;;
12418;SDS011;6273;52.312;9.178;2022-09-01T15:40:43;1.73;;;0.60;;
12418;SDS011;6273;52.312;9.178;2022-09-01T15:43:10;4.27;;;1.00;;
12418;SDS011;6273;52.312;9.178;2022-09-01T15:45:36;1.00;;;0.57;;
12418;SDS011;6273;52.312;9.178;2022-09-01T15:48:03;0.80;;;0.63;;
12418;SDS011;6273;52.312;9.178;2022-09-01T15:50:28;1.97;;;0.60;;
12418;SDS011;6273;52.312;9.178;2022-09-01T15:52:55;1.30;;;0.60;;
12418;SDS011;6273;52.312;9.178;2022-09-01T15:55:31;3.30;;;1.17;;
12418;SDS011;6273;52.312;9.178;2022-09-01T15:58:05;0.70;;;0.50;;
12418;SDS011;6273;52.312;9.178;2022-09-01T16:00:31;1.07;;;0.97;;
12418;SDS011;6273;52.312;9.178;2022-09-01T16:02:57;1.20;;;0.50;;
12418;SDS011;6273;52.312;9.178;2022-09-01T16:05:25;1.90;;;0.60;;
12418;SDS011;6273;52.312;9.178;2022-09-01T16:07:52;1.63;;;0.83;;
12418;SDS011;6273;52.312;9.178;2022-09-01T16:10:18;2.07;;;0.77;;
12418;SDS011;6273;52.312;9.178;2022-09-01T16:12:44;4.40;;;0.80;;
12418;SDS011;6273;52.312;9.178;2022-09-01T16:15:14;8.90;;;0.70;;
12418;SDS011;6273;52.312;9.178;2022-09-01T16:23:18;0.80;;;0.60;;
12418;SDS011;6273;52.312;9.178;2022-09-01T16:25:49;2.27;;;0.67;;
12418;SDS011;6273;52.312;9.178;2022-09-01T16:30:56;2.00;;;0.93;;
12418;SDS011;6273;52.312;9.178;2022-09-01T16:33:26;1.30;;;0.60;;
12418;SDS011;6273;52.312;9.178;2022-09-01T16:36:01;0.90;;;0.70;;
12418;SDS011;6273;52.312;9.178;2022-09-01T16:42:00;9.73;;;1.00;;
12418;SDS011;6273;52.312;9.178;2022-09-01T16:44:36;0.70;;;0.53;;